sensor_id;sensor_type;location;lat;lon;timestamp;P1;durP1;ratioP1;P2;durP2;ratioP2
7665;SDS011;3875;46.562;4.898;2022-09-16T00:02:11;3.57;;;2.60;;
7665;SDS011;3875;46.562;4.898;2022-09-16T00:04:38;2.90;;;2.60;;
7665;SDS011;3875;46.562;4.898;2022-09-16T00:07:04;2.90;;;2.63;;
7665;SDS011;3875;46.562;4.898;2022-09-16T00:09:30;2.97;;;2.67;;
7665;SDS011;3875;46.562;4.898;2022-09-16T00:11:55;4.90;;;2.70;;
7665;SDS011;3875;46.562;4.898;2022-09-16T00:14:21;3.13;;;2.67;;
7665;SDS011;3875;46.562;4.898;2022-09-16T00:16:47;2.77;;;2.37;;
7665;SDS011;3875;46.562;4.898;2022-09-16T00:19:12;3.30;;;2.60;;
7665;SDS011;3875;46.562;4.898;2022-09-16T00:21:38;3.30;;;2.90;;
7665;SDS011;3875;46.562;4.898;2022-09-16T00:24:04;3.00;;;2.70;;
7665;SDS011;3875;46.562;4.898;2022-09-16T00:26:29;6.50;;;3.03;;
7665;SDS011;3875;46.562;4.898;2022-09-16T00:28:55;2.90;;;2.60;;
7665;SDS011;3875;46.562;4.898;2022-09-16T00:31:21;6.32;;;3.10;;
7665;SDS011;3875;46.562;4.898;2022-09-16T00:33:47;3.13;;;2.67;;
7665;SDS011;3875;46.562;4.898;2022-09-16T00:36:13;6.43;;;3.13;;
7665;SDS011;3875;46.562;4.898;2022-09-16T00:38:41;3.77;;;3.30;;
7665;SDS011;3875;46.562;4.898;2022-09-16T00:41:07;4.37;;;2.83;;
7665;SDS011;3875;46.562;4.898;2022-09-16T00:46:16;8.83;;;3.13;;
7665;SDS011;3875;46.562;4.898;2022-09-16T00:48:46;6.50;;;3.20;;
7665;SDS011;3875;46.562;4.898;2022-09-16T00:51:13;5.10;;;2.83;;
7665;SDS011;3875;46.562;4.898;2022-09-16T00:53:41;7.67;;;3.13;;
7665;SDS011;3875;46.562;4.898;2022-09-16T00:56:13;5.23;;;3.20;;
7665;SDS011;3875;46.562;4.898;2022-09-16T00:58:48;4.47;;;3.00;;
7665;SDS011;3875;46.562;4.898;2022-09-16T01:01:19;3.43;;;3.10;;
7665;SDS011;3875;46.562;4.898;2022-09-16T01:03:50;7.10;;;3.37;;
7665;SDS011;3875;46.562;4.898;2022-09-16T01:06:18;7.80;;;3.17;;
7665;SDS011;3875;46.562;4.898;2022-09-16T01:08:45;4.47;;;3.33;;
7665;SDS011;3875;46.562;4.898;2022-09-16T01:11:13;3.70;;;3.40;;
7665;SDS011;3875;46.562;4.898;2022-09-16T01:13:38;4.03;;;3.33;;
7665;SDS011;3875;46.562;4.898;2022-09-16T01:16:05;5.20;;;3.00;;
7665;SDS011;3875;46.562;4.898;2022-09-16T01:26:42;4.33;;;3.40;;
7665;SDS011;3875;46.562;4.898;2022-09-16T01:31:50;10.33;;;3.53;;
7665;SDS011;3875;46.562;4.898;2022-09-16T01:40:15;3.67;;;3.37;;
7665;SDS011;3875;46.562;4.898;2022-09-16T01:48:12;3.83;;;3.40;;
7665;SDS011;3875;46.562;4.898;2022-09-16T01:51:04;6.10;;;3.60;;
7665;SDS011;3875;46.562;4.898;2022-09-16T01:54:08;5.93;;;3.07;;
7665;SDS011;3875;46.562;4.898;2022-09-16T01:56:49;3.47;;;3.17;;
7665;SDS011;3875;46.562;4.898;2022-09-16T01:59:35;4.30;;;3.90;;
7665;SDS011;3875;46.562;4.898;2022-09-16T02:04:54;4.30;;;3.70;;
7665;SDS011;3875;46.562;4.898;2022-09-16T02:07:22;8.07;;;3.27;;
7665;SDS011;3875;46.562;4.898;2022-09-16T02:09:57;5.93;;;3.57;;
7665;SDS011;3875;46.562;4.898;2022-09-16T02:12:31;5.50;;;3.37;;
7665;SDS011;3875;46.562;4.898;2022-09-16T02:15:04;5.20;;;3.87;;
7665;SDS011;3875;46.562;4.898;2022-09-16T02:17:34;6.40;;;4.03;;
7665;SDS011;3875;46.562;4.898;2022-09-16T02:20:07;7.70;;;3.47;;
7665;SDS011;3875;46.562;4.898;2022-09-16T02:22:38;6.20;;;3.97;;
7665;SDS011;3875;46.562;4.898;2022-09-16T02:25:08;4.30;;;3.40;;
7665;SDS011;3875;46.562;4.898;2022-09-16T02:27:37;5.70;;;3.80;;
7665;SDS011;3875;46.562;4.898;2022-09-16T02:30:09;4.43;;;3.97;;
7665;SDS011;3875;46.562;4.898;2022-09-16T02:32:41;3.87;;;3.33;;
7665;SDS011;3875;46.562;4.898;2022-09-16T02:35:11;5.07;;;3.70;;
7665;SDS011;3875;46.562;4.898;2022-09-16T02:37:55;6.07;;;3.50;;
7665;SDS011;3875;46.562;4.898;2022-09-16T02:40:39;4.17;;;3.43;;
7665;SDS011;3875;46.562;4.898;2022-09-16T02:43:08;4.27;;;3.87;;
7665;SDS011;3875;46.562;4.898;2022-09-16T02:51:32;7.70;;;3.77;;
7665;SDS011;3875;46.562;4.898;2022-09-16T02:56:37;6.33;;;3.73;;
7665;SDS011;3875;46.562;4.898;2022-09-16T02:59:06;6.17;;;4.10;;
7665;SDS011;3875;46.562;4.898;2022-09-16T03:01:38;5.47;;;4.13;;
7665;SDS011;3875;46.562;4.898;2022-09-16T03:04:09;6.20;;;3.63;;
7665;SDS011;3875;46.562;4.898;2022-09-16T03:06:36;6.07;;;3.70;;
7665;SDS011;3875;46.562;4.898;2022-09-16T03:09:04;5.43;;;4.47;;
7665;SDS011;3875;46.562;4.898;2022-09-16T03:17:12;5.23;;;4.20;;
7665;SDS011;3875;46.562;4.898;2022-09-16T03:22:54;5.80;;;4.03;;
7665;SDS011;3875;46.562;4.898;2022-09-16T03:28:35;4.80;;;4.10;;
7665;SDS011;3875;46.562;4.898;2022-09-16T03:31:16;4.47;;;4.07;;
7665;SDS011;3875;46.562;4.898;2022-09-16T03:36:42;4.10;;;3.70;;
7665;SDS011;3875;46.562;4.898;2022-09-16T03:39:12;4.47;;;4.00;;
7665;SDS011;3875;46.562;4.898;2022-09-16T03:41:38;4.30;;;3.90;;
7665;SDS011;3875;46.562;4.898;2022-09-16T03:44:04;6.57;;;4.03;;
7665;SDS011;3875;46.562;4.898;2022-09-16T03:46:30;7.87;;;3.87;;
7665;SDS011;3875;46.562;4.898;2022-09-16T03:48:56;4.40;;;3.40;;
7665;SDS011;3875;46.562;4.898;2022-09-16T03:51:23;5.40;;;3.80;;
7665;SDS011;3875;46.562;4.898;2022-09-16T03:53:50;3.83;;;3.50;;
7665;SDS011;3875;46.562;4.898;2022-09-16T03:56:16;7.30;;;3.63;;
7665;SDS011;3875;46.562;4.898;2022-09-16T03:58:42;5.57;;;3.47;;
7665;SDS011;3875;46.562;4.898;2022-09-16T04:01:08;4.10;;;3.70;;
7665;SDS011;3875;46.562;4.898;2022-09-16T04:03:33;3.97;;;3.50;;
7665;SDS011;3875;46.562;4.898;2022-09-16T04:06:01;4.83;;;4.00;;
7665;SDS011;3875;46.562;4.898;2022-09-16T04:08:28;5.20;;;3.90;;
7665;SDS011;3875;46.562;4.898;2022-09-16T04:10:54;4.37;;;3.97;;
7665;SDS011;3875;46.562;4.898;2022-09-16T04:13:24;7.57;;;4.13;;
7665;SDS011;3875;46.562;4.898;2022-09-16T04:15:52;4.43;;;3.67;;
7665;SDS011;3875;46.562;4.898;2022-09-16T04:18:18;4.73;;;3.80;;
7665;SDS011;3875;46.562;4.898;2022-09-16T04:20:44;10.47;;;4.07;;
7665;SDS011;3875;46.562;4.898;2022-09-16T04:23:09;5.70;;;3.80;;
7665;SDS011;3875;46.562;4.898;2022-09-16T04:25:35;5.33;;;4.10;;
7665;SDS011;3875;46.562;4.898;2022-09-16T04:28:01;6.70;;;4.03;;
7665;SDS011;3875;46.562;4.898;2022-09-16T04:30:26;4.60;;;3.87;;
7665;SDS011;3875;46.562;4.898;2022-09-16T04:32:52;8.33;;;3.70;;
7665;SDS011;3875;46.562;4.898;2022-09-16T04:35:18;4.60;;;3.70;;
7665;SDS011;3875;46.562;4.898;2022-09-16T04:37:44;3.97;;;3.57;;
7665;SDS011;3875;46.562;4.898;2022-09-16T04:40:11;5.57;;;3.50;;
7665;SDS011;3875;46.562;4.898;2022-09-16T04:42:36;7.93;;;3.93;;
7665;SDS011;3875;46.562;4.898;2022-09-16T04:45:02;4.93;;;3.60;;
7665;SDS011;3875;46.562;4.898;2022-09-16T04:47:28;4.67;;;3.53;;
7665;SDS011;3875;46.562;4.898;2022-09-16T04:49:54;5.57;;;3.37;;
7665;SDS011;3875;46.562;4.898;2022-09-16T04:52:20;6.83;;;3.70;;
7665;SDS011;3875;46.562;4.898;2022-09-16T04:54:46;4.70;;;4.17;;
7665;SDS011;3875;46.562;4.898;2022-09-16T04:57:11;4.57;;;3.90;;
7665;SDS011;3875;46.562;4.898;2022-09-16T04:59:37;4.60;;;3.57;;
7665;SDS011;3875;46.562;4.898;2022-09-16T05:02:02;8.40;;;3.40;;
7665;SDS011;3875;46.562;4.898;2022-09-16T05:04:28;5.13;;;3.77;;
7665;SDS011;3875;46.562;4.898;2022-09-16T05:06:54;9.33;;;3.70;;
7665;SDS011;3875;46.562;4.898;2022-09-16T05:09:19;6.60;;;2.97;;
7665;SDS011;3875;46.562;4.898;2022-09-16T05:11:48;8.27;;;3.53;;
7665;SDS011;3875;46.562;4.898;2022-09-16T05:14:15;6.47;;;3.63;;
7665;SDS011;3875;46.562;4.898;2022-09-16T05:16:42;6.33;;;3.50;;
7665;SDS011;3875;46.562;4.898;2022-09-16T05:19:09;5.20;;;3.27;;
7665;SDS011;3875;46.562;4.898;2022-09-16T05:21:37;4.17;;;3.77;;
7665;SDS011;3875;46.562;4.898;2022-09-16T05:24:05;5.93;;;3.70;;
7665;SDS011;3875;46.562;4.898;2022-09-16T05:26:33;4.93;;;3.23;;
7665;SDS011;3875;46.562;4.898;2022-09-16T05:29:02;3.50;;;3.20;;
7665;SDS011;3875;46.562;4.898;2022-09-16T05:31:34;6.43;;;3.87;;
7665;SDS011;3875;46.562;4.898;2022-09-16T05:34:05;3.80;;;3.50;;
7665;SDS011;3875;46.562;4.898;2022-09-16T05:36:39;5.17;;;3.80;;
7665;SDS011;3875;46.562;4.898;2022-09-16T05:39:07;8.87;;;3.50;;
7665;SDS011;3875;46.562;4.898;2022-09-16T05:41:33;5.67;;;3.80;;
7665;SDS011;3875;46.562;4.898;2022-09-16T05:43:59;4.43;;;3.97;;
7665;SDS011;3875;46.562;4.898;2022-09-16T05:46:25;4.73;;;4.00;;
7665;SDS011;3875;46.562;4.898;2022-09-16T05:48:51;5.37;;;3.77;;
7665;SDS011;3875;46.562;4.898;2022-09-16T05:51:19;9.57;;;4.87;;
7665;SDS011;3875;46.562;4.898;2022-09-16T05:53:46;5.17;;;4.67;;
7665;SDS011;3875;46.562;4.898;2022-09-16T05:56:14;5.90;;;4.17;;
7665;SDS011;3875;46.562;4.898;2022-09-16T05:58:41;4.10;;;3.40;;
7665;SDS011;3875;46.562;4.898;2022-09-16T06:01:12;8.63;;;3.80;;
7665;SDS011;3875;46.562;4.898;2022-09-16T06:03:39;6.47;;;3.73;;
7665;SDS011;3875;46.562;4.898;2022-09-16T06:06:10;4.50;;;3.40;;
7665;SDS011;3875;46.562;4.898;2022-09-16T06:08:42;5.77;;;3.60;;
7665;SDS011;3875;46.562;4.898;2022-09-16T06:11:08;4.33;;;3.87;;
7665;SDS011;3875;46.562;4.898;2022-09-16T06:13:35;3.93;;;3.33;;
7665;SDS011;3875;46.562;4.898;2022-09-16T06:16:02;3.67;;;3.30;;
7665;SDS011;3875;46.562;4.898;2022-09-16T06:18:28;6.33;;;3.43;;
7665;SDS011;3875;46.562;4.898;2022-09-16T06:20:55;4.23;;;3.83;;
7665;SDS011;3875;46.562;4.898;2022-09-16T06:23:22;7.53;;;3.60;;
7665;SDS011;3875;46.562;4.898;2022-09-16T06:25:48;5.63;;;3.37;;
7665;SDS011;3875;46.562;4.898;2022-09-16T06:28:23;7.53;;;3.43;;
7665;SDS011;3875;46.562;4.898;2022-09-16T06:30:59;4.27;;;3.60;;
7665;SDS011;3875;46.562;4.898;2022-09-16T06:33:30;4.33;;;3.20;;
7665;SDS011;3875;46.562;4.898;2022-09-16T06:35:56;11.30;;;4.00;;
7665;SDS011;3875;46.562;4.898;2022-09-16T06:38:26;4.30;;;3.43;;
7665;SDS011;3875;46.562;4.898;2022-09-16T06:40:51;3.97;;;3.57;;
7665;SDS011;3875;46.562;4.898;2022-09-16T06:43:17;4.20;;;3.80;;
7665;SDS011;3875;46.562;4.898;2022-09-16T06:45:43;5.83;;;3.70;;
7665;SDS011;3875;46.562;4.898;2022-09-16T06:48:08;5.97;;;3.67;;
7665;SDS011;3875;46.562;4.898;2022-09-16T06:50:34;5.70;;;3.30;;
7665;SDS011;3875;46.562;4.898;2022-09-16T06:53:00;4.60;;;3.77;;
7665;SDS011;3875;46.562;4.898;2022-09-16T06:55:26;6.73;;;3.80;;
7665;SDS011;3875;46.562;4.898;2022-09-16T06:57:51;4.27;;;3.63;;
7665;SDS011;3875;46.562;4.898;2022-09-16T07:00:17;4.13;;;3.40;;
7665;SDS011;3875;46.562;4.898;2022-09-16T07:02:43;4.53;;;3.43;;
7665;SDS011;3875;46.562;4.898;2022-09-16T07:08:31;5.17;;;3.47;;
7665;SDS011;3875;46.562;4.898;2022-09-16T07:10:59;4.30;;;3.20;;
7665;SDS011;3875;46.562;4.898;2022-09-16T07:13:26;7.00;;;3.63;;
7665;SDS011;3875;46.562;4.898;2022-09-16T07:15:52;5.47;;;4.50;;
7665;SDS011;3875;46.562;4.898;2022-09-16T07:18:18;4.30;;;3.73;;
7665;SDS011;3875;46.562;4.898;2022-09-16T07:20:44;6.20;;;3.80;;
7665;SDS011;3875;46.562;4.898;2022-09-16T07:23:10;4.53;;;3.53;;
7665;SDS011;3875;46.562;4.898;2022-09-16T07:25:36;5.23;;;4.20;;
7665;SDS011;3875;46.562;4.898;2022-09-16T07:28:02;4.67;;;3.50;;
7665;SDS011;3875;46.562;4.898;2022-09-16T07:30:28;4.83;;;3.47;;
7665;SDS011;3875;46.562;4.898;2022-09-16T07:32:55;5.57;;;3.57;;
7665;SDS011;3875;46.562;4.898;2022-09-16T07:35:21;4.67;;;3.53;;
7665;SDS011;3875;46.562;4.898;2022-09-16T07:37:46;4.03;;;3.40;;
7665;SDS011;3875;46.562;4.898;2022-09-16T07:40:12;4.13;;;3.63;;
7665;SDS011;3875;46.562;4.898;2022-09-16T07:42:38;6.27;;;4.20;;
7665;SDS011;3875;46.562;4.898;2022-09-16T07:45:04;5.63;;;4.20;;
7665;SDS011;3875;46.562;4.898;2022-09-16T07:47:30;4.57;;;3.70;;
7665;SDS011;3875;46.562;4.898;2022-09-16T07:49:56;5.33;;;4.33;;
7665;SDS011;3875;46.562;4.898;2022-09-16T07:52:23;4.90;;;4.50;;
7665;SDS011;3875;46.562;4.898;2022-09-16T07:54:53;5.17;;;4.67;;
7665;SDS011;3875;46.562;4.898;2022-09-16T07:57:22;7.33;;;4.40;;
7665;SDS011;3875;46.562;4.898;2022-09-16T07:59:48;6.27;;;5.10;;
7665;SDS011;3875;46.562;4.898;2022-09-16T08:02:14;4.50;;;4.10;;
7665;SDS011;3875;46.562;4.898;2022-09-16T08:04:40;6.07;;;5.47;;
7665;SDS011;3875;46.562;4.898;2022-09-16T08:07:06;6.40;;;4.30;;
7665;SDS011;3875;46.562;4.898;2022-09-16T08:09:32;6.80;;;5.20;;
7665;SDS011;3875;46.562;4.898;2022-09-16T08:12:00;6.27;;;5.40;;
7665;SDS011;3875;46.562;4.898;2022-09-16T08:14:28;7.07;;;5.17;;
7665;SDS011;3875;46.562;4.898;2022-09-16T08:16:54;8.07;;;6.03;;
7665;SDS011;3875;46.562;4.898;2022-09-16T08:19:19;7.67;;;5.43;;
7665;SDS011;3875;46.562;4.898;2022-09-16T08:21:46;7.83;;;6.10;;
7665;SDS011;3875;46.562;4.898;2022-09-16T08:24:13;6.87;;;5.80;;
7665;SDS011;3875;46.562;4.898;2022-09-16T08:26:40;7.13;;;6.23;;
7665;SDS011;3875;46.562;4.898;2022-09-16T08:29:06;6.03;;;5.43;;
7665;SDS011;3875;46.562;4.898;2022-09-16T08:31:32;12.07;;;6.53;;
7665;SDS011;3875;46.562;4.898;2022-09-16T08:33:57;9.10;;;6.40;;
7665;SDS011;3875;46.562;4.898;2022-09-16T08:36:24;7.67;;;6.67;;
7665;SDS011;3875;46.562;4.898;2022-09-16T08:38:50;10.40;;;6.90;;
7665;SDS011;3875;46.562;4.898;2022-09-16T08:54:42;10.10;;;6.43;;
7665;SDS011;3875;46.562;4.898;2022-09-16T08:57:13;8.50;;;6.77;;
7665;SDS011;3875;46.562;4.898;2022-09-16T08:59:45;7.77;;;6.73;;
7665;SDS011;3875;46.562;4.898;2022-09-16T09:04:56;10.57;;;7.00;;
7665;SDS011;3875;46.562;4.898;2022-09-16T09:47:36;6.87;;;6.17;;
7665;SDS011;3875;46.562;4.898;2022-09-16T09:56:15;6.90;;;6.20;;
7665;SDS011;3875;46.562;4.898;2022-09-16T09:58:44;10.83;;;5.47;;
7665;SDS011;3875;46.562;4.898;2022-09-16T10:01:18;6.17;;;4.90;;
7665;SDS011;3875;46.562;4.898;2022-09-16T10:03:44;6.27;;;4.90;;
7665;SDS011;3875;46.562;4.898;2022-09-16T10:06:12;10.17;;;5.00;;
7665;SDS011;3875;46.562;4.898;2022-09-16T10:08:45;8.83;;;5.23;;
7665;SDS011;3875;46.562;4.898;2022-09-16T10:11:15;7.20;;;4.90;;
7665;SDS011;3875;46.562;4.898;2022-09-16T10:13:52;5.67;;;4.27;;
7665;SDS011;3875;46.562;4.898;2022-09-16T10:16:24;5.90;;;4.73;;
7665;SDS011;3875;46.562;4.898;2022-09-16T10:19:15;6.43;;;4.57;;
7665;SDS011;3875;46.562;4.898;2022-09-16T10:21:52;5.53;;;3.70;;
7665;SDS011;3875;46.562;4.898;2022-09-16T10:24:40;4.67;;;4.13;;
7665;SDS011;3875;46.562;4.898;2022-09-16T10:32:45;6.13;;;3.97;;
7665;SDS011;3875;46.562;4.898;2022-09-16T10:35:19;6.73;;;3.47;;
7665;SDS011;3875;46.562;4.898;2022-09-16T10:38:36;7.17;;;4.50;;
7665;SDS011;3875;46.562;4.898;2022-09-16T10:41:18;4.70;;;3.93;;
7665;SDS011;3875;46.562;4.898;2022-09-16T10:43:48;5.03;;;4.13;;
7665;SDS011;3875;46.562;4.898;2022-09-16T10:46:17;5.70;;;4.23;;
7665;SDS011;3875;46.562;4.898;2022-09-16T10:48:43;7.90;;;4.10;;
7665;SDS011;3875;46.562;4.898;2022-09-16T10:51:21;3.77;;;3.30;;
7665;SDS011;3875;46.562;4.898;2022-09-16T10:54:10;3.77;;;3.40;;
7665;SDS011;3875;46.562;4.898;2022-09-16T10:56:48;4.67;;;2.77;;
7665;SDS011;3875;46.562;4.898;2022-09-16T10:59:15;5.23;;;3.00;;
7665;SDS011;3875;46.562;4.898;2022-09-16T11:08:43;3.83;;;2.83;;
7665;SDS011;3875;46.562;4.898;2022-09-16T11:14:05;4.10;;;3.03;;
7665;SDS011;3875;46.562;4.898;2022-09-16T11:30:48;7.73;;;3.50;;
7665;SDS011;3875;46.562;4.898;2022-09-16T11:33:45;3.93;;;3.50;;
7665;SDS011;3875;46.562;4.898;2022-09-16T11:55:32;2.47;;;2.27;;
7665;SDS011;3875;46.562;4.898;2022-09-16T11:58:13;2.77;;;2.40;;
7665;SDS011;3875;46.562;4.898;2022-09-16T12:00:48;3.07;;;2.33;;
7665;SDS011;3875;46.562;4.898;2022-09-16T12:05:51;2.57;;;1.93;;
7665;SDS011;3875;46.562;4.898;2022-09-16T12:08:30;2.33;;;2.13;;
7665;SDS011;3875;46.562;4.898;2022-09-16T12:14:12;3.00;;;2.10;;
7665;SDS011;3875;46.562;4.898;2022-09-16T12:16:43;3.03;;;1.80;;
7665;SDS011;3875;46.562;4.898;2022-09-16T12:22:12;2.57;;;2.20;;
7665;SDS011;3875;46.562;4.898;2022-09-16T12:27:42;2.77;;;2.13;;
7665;SDS011;3875;46.562;4.898;2022-09-16T12:30:21;2.77;;;2.13;;
7665;SDS011;3875;46.562;4.898;2022-09-16T12:35:21;2.40;;;2.20;;
7665;SDS011;3875;46.562;4.898;2022-09-16T12:37:52;3.40;;;2.77;;
7665;SDS011;3875;46.562;4.898;2022-09-16T12:40:30;2.20;;;2.00;;
7665;SDS011;3875;46.562;4.898;2022-09-16T12:46:16;2.50;;;2.27;;
7665;SDS011;3875;46.562;4.898;2022-09-16T13:00:40;2.53;;;2.33;;
7665;SDS011;3875;46.562;4.898;2022-09-16T13:03:21;3.27;;;2.63;;
7665;SDS011;3875;46.562;4.898;2022-09-16T13:05:51;4.53;;;2.20;;
7665;SDS011;3875;46.562;4.898;2022-09-16T13:13:30;2.50;;;2.30;;
7665;SDS011;3875;46.562;4.898;2022-09-16T13:16:02;4.27;;;2.33;;
7665;SDS011;3875;46.562;4.898;2022-09-16T13:24:05;3.63;;;2.73;;
7665;SDS011;3875;46.562;4.898;2022-09-16T13:26:55;4.10;;;2.70;;
7665;SDS011;3875;46.562;4.898;2022-09-16T13:29:42;4.63;;;2.67;;
7665;SDS011;3875;46.562;4.898;2022-09-16T13:32:23;2.30;;;2.10;;
7665;SDS011;3875;46.562;4.898;2022-09-16T13:34:59;2.23;;;2.13;;
7665;SDS011;3875;46.562;4.898;2022-09-16T13:37:49;8.43;;;2.57;;
7665;SDS011;3875;46.562;4.898;2022-09-16T13:42:42;4.13;;;2.67;;
7665;SDS011;3875;46.562;4.898;2022-09-16T13:53:35;2.90;;;2.20;;
7665;SDS011;3875;46.562;4.898;2022-09-16T14:04:06;2.50;;;2.30;;
7665;SDS011;3875;46.562;4.898;2022-09-16T14:09:46;3.10;;;2.43;;
7665;SDS011;3875;46.562;4.898;2022-09-16T14:12:26;5.47;;;2.93;;
7665;SDS011;3875;46.562;4.898;2022-09-16T14:14:58;2.93;;;2.60;;
7665;SDS011;3875;46.562;4.898;2022-09-16T14:17:25;10.17;;;3.03;;
7665;SDS011;3875;46.562;4.898;2022-09-16T14:20:14;3.10;;;2.60;;
7665;SDS011;3875;46.562;4.898;2022-09-16T14:22:42;6.00;;;2.90;;
7665;SDS011;3875;46.562;4.898;2022-09-16T14:25:23;3.90;;;2.93;;
7665;SDS011;3875;46.562;4.898;2022-09-16T14:27:49;3.73;;;2.77;;
7665;SDS011;3875;46.562;4.898;2022-09-16T14:30:16;5.70;;;2.93;;
7665;SDS011;3875;46.562;4.898;2022-09-16T14:32:43;4.93;;;2.60;;
7665;SDS011;3875;46.562;4.898;2022-09-16T14:37:43;2.50;;;2.23;;
7665;SDS011;3875;46.562;4.898;2022-09-16T14:40:11;2.90;;;2.70;;
7665;SDS011;3875;46.562;4.898;2022-09-16T14:42:46;2.90;;;2.57;;
7665;SDS011;3875;46.562;4.898;2022-09-16T14:45:15;2.50;;;2.30;;
7665;SDS011;3875;46.562;4.898;2022-09-16T14:47:41;6.37;;;2.50;;
7665;SDS011;3875;46.562;4.898;2022-09-16T14:50:50;3.43;;;2.93;;
7665;SDS011;3875;46.562;4.898;2022-09-16T14:53:02;2.97;;;2.23;;
7665;SDS011;3875;46.562;4.898;2022-09-16T14:55:32;3.73;;;2.40;;
7665;SDS011;3875;46.562;4.898;2022-09-16T14:58:01;2.63;;;2.43;;
7665;SDS011;3875;46.562;4.898;2022-09-16T15:00:38;4.13;;;2.30;;
7665;SDS011;3875;46.562;4.898;2022-09-16T15:03:15;2.40;;;2.13;;
7665;SDS011;3875;46.562;4.898;2022-09-16T15:08:29;3.33;;;2.20;;
7665;SDS011;3875;46.562;4.898;2022-09-16T15:11:11;2.40;;;2.10;;
7665;SDS011;3875;46.562;4.898;2022-09-16T15:13:39;4.60;;;2.67;;
7665;SDS011;3875;46.562;4.898;2022-09-16T15:16:11;5.00;;;2.30;;
7665;SDS011;3875;46.562;4.898;2022-09-16T15:18:43;5.30;;;2.43;;
7665;SDS011;3875;46.562;4.898;2022-09-16T15:21:17;2.57;;;2.33;;
7665;SDS011;3875;46.562;4.898;2022-09-16T15:23:46;4.73;;;2.27;;
7665;SDS011;3875;46.562;4.898;2022-09-16T15:26:15;2.43;;;2.17;;
7665;SDS011;3875;46.562;4.898;2022-09-16T15:28:50;2.87;;;2.47;;
7665;SDS011;3875;46.562;4.898;2022-09-16T15:31:51;4.67;;;2.57;;
7665;SDS011;3875;46.562;4.898;2022-09-16T15:36:46;2.63;;;2.27;;
7665;SDS011;3875;46.562;4.898;2022-09-16T15:42:08;2.70;;;2.23;;
7665;SDS011;3875;46.562;4.898;2022-09-16T15:44:37;2.33;;;2.13;;
7665;SDS011;3875;46.562;4.898;2022-09-16T15:47:20;2.47;;;2.27;;
7665;SDS011;3875;46.562;4.898;2022-09-16T15:50:14;4.57;;;2.37;;
7665;SDS011;3875;46.562;4.898;2022-09-16T15:55:36;7.20;;;2.50;;
7665;SDS011;3875;46.562;4.898;2022-09-16T15:58:16;3.77;;;2.23;;
7665;SDS011;3875;46.562;4.898;2022-09-16T16:03:24;2.80;;;2.23;;
7665;SDS011;3875;46.562;4.898;2022-09-16T16:05:52;2.93;;;2.43;;
7665;SDS011;3875;46.562;4.898;2022-09-16T16:11:11;3.37;;;1.93;;
7665;SDS011;3875;46.562;4.898;2022-09-16T16:13:38;3.77;;;2.20;;
7665;SDS011;3875;46.562;4.898;2022-09-16T16:16:04;3.47;;;2.30;;
7665;SDS011;3875;46.562;4.898;2022-09-16T16:20:58;4.70;;;2.30;;
7665;SDS011;3875;46.562;4.898;2022-09-16T16:23:28;3.30;;;2.17;;
7665;SDS011;3875;46.562;4.898;2022-09-16T16:25:53;2.93;;;2.10;;
7665;SDS011;3875;46.562;4.898;2022-09-16T16:28:19;4.93;;;2.40;;
7665;SDS011;3875;46.562;4.898;2022-09-16T16:30:45;3.73;;;1.90;;
7665;SDS011;3875;46.562;4.898;2022-09-16T16:33:11;5.50;;;2.20;;
7665;SDS011;3875;46.562;4.898;2022-09-16T16:35:37;4.07;;;2.50;;
7665;SDS011;3875;46.562;4.898;2022-09-16T16:38:02;2.67;;;2.47;;
7665;SDS011;3875;46.562;4.898;2022-09-16T16:40:28;3.97;;;2.30;;
7665;SDS011;3875;46.562;4.898;2022-09-16T16:42:54;4.93;;;2.77;;
7665;SDS011;3875;46.562;4.898;2022-09-16T16:45:19;2.33;;;2.13;;
7665;SDS011;3875;46.562;4.898;2022-09-16T16:47:45;4.83;;;2.50;;
7665;SDS011;3875;46.562;4.898;2022-09-16T16:50:11;3.40;;;2.30;;
7665;SDS011;3875;46.562;4.898;2022-09-16T16:52:37;4.70;;;2.70;;
7665;SDS011;3875;46.562;4.898;2022-09-16T16:55:03;2.40;;;2.20;;
7665;SDS011;3875;46.562;4.898;2022-09-16T16:57:30;4.80;;;2.50;;
7665;SDS011;3875;46.562;4.898;2022-09-16T16:59:56;3.50;;;2.50;;
7665;SDS011;3875;46.562;4.898;2022-09-16T17:02:21;2.60;;;2.10;;
7665;SDS011;3875;46.562;4.898;2022-09-16T17:04:47;4.60;;;2.50;;
7665;SDS011;3875;46.562;4.898;2022-09-16T17:07:13;6.40;;;2.00;;
7665;SDS011;3875;46.562;4.898;2022-09-16T17:09:39;3.47;;;2.60;;
7665;SDS011;3875;46.562;4.898;2022-09-16T17:12:05;4.10;;;2.20;;
7665;SDS011;3875;46.562;4.898;2022-09-16T17:14:31;6.57;;;2.67;;
7665;SDS011;3875;46.562;4.898;2022-09-16T17:16:57;2.37;;;2.17;;
7665;SDS011;3875;46.562;4.898;2022-09-16T17:19:24;3.00;;;2.20;;
7665;SDS011;3875;46.562;4.898;2022-09-16T17:21:50;3.93;;;2.60;;
7665;SDS011;3875;46.562;4.898;2022-09-16T17:24:18;2.70;;;2.33;;
7665;SDS011;3875;46.562;4.898;2022-09-16T17:26:44;4.17;;;2.33;;
7665;SDS011;3875;46.562;4.898;2022-09-16T17:29:10;3.57;;;2.30;;
7665;SDS011;3875;46.562;4.898;2022-09-16T17:31:37;3.40;;;2.47;;
7665;SDS011;3875;46.562;4.898;2022-09-16T17:34:07;2.63;;;2.20;;
7665;SDS011;3875;46.562;4.898;2022-09-16T17:36:35;7.07;;;2.80;;
7665;SDS011;3875;46.562;4.898;2022-09-16T17:39:20;3.73;;;2.20;;
7665;SDS011;3875;46.562;4.898;2022-09-16T17:41:47;5.70;;;3.00;;
7665;SDS011;3875;46.562;4.898;2022-09-16T17:44:17;6.57;;;2.80;;
7665;SDS011;3875;46.562;4.898;2022-09-16T17:46:43;3.43;;;2.70;;
7665;SDS011;3875;46.562;4.898;2022-09-16T17:49:14;5.33;;;2.60;;
7665;SDS011;3875;46.562;4.898;2022-09-16T17:51:48;2.80;;;2.47;;
7665;SDS011;3875;46.562;4.898;2022-09-16T17:54:15;5.00;;;2.20;;
7665;SDS011;3875;46.562;4.898;2022-09-16T17:56:41;3.47;;;3.10;;
7665;SDS011;3875;46.562;4.898;2022-09-16T17:59:08;5.43;;;2.70;;
7665;SDS011;3875;46.562;4.898;2022-09-16T18:01:34;8.70;;;3.03;;
7665;SDS011;3875;46.562;4.898;2022-09-16T18:04:00;3.27;;;2.73;;
7665;SDS011;3875;46.562;4.898;2022-09-16T18:06:30;3.50;;;2.63;;
7665;SDS011;3875;46.562;4.898;2022-09-16T18:09:00;7.67;;;3.10;;
7665;SDS011;3875;46.562;4.898;2022-09-16T18:11:26;4.70;;;2.90;;
7665;SDS011;3875;46.562;4.898;2022-09-16T18:13:53;4.63;;;2.60;;
7665;SDS011;3875;46.562;4.898;2022-09-16T18:16:21;5.83;;;3.37;;
7665;SDS011;3875;46.562;4.898;2022-09-16T18:18:51;3.37;;;3.03;;
7665;SDS011;3875;46.562;4.898;2022-09-16T18:21:19;4.40;;;3.10;;
7665;SDS011;3875;46.562;4.898;2022-09-16T18:23:46;3.40;;;3.10;;
7665;SDS011;3875;46.562;4.898;2022-09-16T18:26:16;7.30;;;2.77;;
7665;SDS011;3875;46.562;4.898;2022-09-16T18:28:43;3.90;;;3.47;;
7665;SDS011;3875;46.562;4.898;2022-09-16T18:31:11;4.27;;;2.73;;
7665;SDS011;3875;46.562;4.898;2022-09-16T18:33:38;4.13;;;3.20;;
7665;SDS011;3875;46.562;4.898;2022-09-16T18:36:05;4.70;;;3.70;;
7665;SDS011;3875;46.562;4.898;2022-09-16T18:38:33;3.27;;;2.97;;
7665;SDS011;3875;46.562;4.898;2022-09-16T18:43:36;2.80;;;2.60;;
7665;SDS011;3875;46.562;4.898;2022-09-16T18:46:07;8.83;;;3.70;;
7665;SDS011;3875;46.562;4.898;2022-09-16T18:48:34;4.63;;;2.60;;
7665;SDS011;3875;46.562;4.898;2022-09-16T18:51:00;4.07;;;3.10;;
7665;SDS011;3875;46.562;4.898;2022-09-16T18:53:26;5.97;;;2.97;;
7665;SDS011;3875;46.562;4.898;2022-09-16T18:55:52;3.10;;;2.53;;
7665;SDS011;3875;46.562;4.898;2022-09-16T18:58:18;3.90;;;2.70;;
7665;SDS011;3875;46.562;4.898;2022-09-16T19:00:44;4.53;;;3.00;;
7665;SDS011;3875;46.562;4.898;2022-09-16T19:03:15;3.70;;;2.87;;
7665;SDS011;3875;46.562;4.898;2022-09-16T19:05:42;3.10;;;2.30;;
7665;SDS011;3875;46.562;4.898;2022-09-16T19:08:17;3.47;;;2.47;;
7665;SDS011;3875;46.562;4.898;2022-09-16T19:10:43;5.13;;;2.90;;
7665;SDS011;3875;46.562;4.898;2022-09-16T19:13:09;4.20;;;2.27;;
7665;SDS011;3875;46.562;4.898;2022-09-16T19:15:36;2.63;;;2.40;;
7665;SDS011;3875;46.562;4.898;2022-09-16T19:18:05;3.90;;;2.27;;
7665;SDS011;3875;46.562;4.898;2022-09-16T19:20:31;2.60;;;2.40;;
7665;SDS011;3875;46.562;4.898;2022-09-16T19:22:56;2.17;;;1.90;;
7665;SDS011;3875;46.562;4.898;2022-09-16T19:25:22;6.27;;;2.10;;
7665;SDS011;3875;46.562;4.898;2022-09-16T19:27:48;3.47;;;2.57;;
7665;SDS011;3875;46.562;4.898;2022-09-16T19:30:13;6.63;;;1.90;;
7665;SDS011;3875;46.562;4.898;2022-09-16T19:32:39;2.93;;;2.10;;
7665;SDS011;3875;46.562;4.898;2022-09-16T19:35:05;3.33;;;2.10;;
7665;SDS011;3875;46.562;4.898;2022-09-16T19:37:31;6.00;;;1.97;;
7665;SDS011;3875;46.562;4.898;2022-09-16T19:39:57;2.00;;;1.80;;
7665;SDS011;3875;46.562;4.898;2022-09-16T19:42:23;2.20;;;1.67;;